createdAt,value
2022-11-19T00:01:28.663Z,19.75
2022-11-19T00:03:55.899Z,20.05
2022-11-19T00:06:26.688Z,19.52
2022-11-19T00:08:54.547Z,18.80
2022-11-19T00:11:46.121Z,18.48
2022-11-19T00:14:15.707Z,20.50
2022-11-19T00:16:43.950Z,18.35
2022-11-19T00:19:11.760Z,18.75
2022-11-19T00:21:38.821Z,19.45
2022-11-19T00:24:06.334Z,20.10
2022-11-19T00:26:33.110Z,17.98
2022-11-19T00:29:00.077Z,17.35
2022-11-19T00:31:26.906Z,18.75
2022-11-19T00:33:54.683Z,18.48
2022-11-19T00:36:22.920Z,17.08
2022-11-19T00:38:49.871Z,18.50
2022-11-19T00:41:16.712Z,17.80
2022-11-19T00:43:52.402Z,17.75
2022-11-19T00:46:27.421Z,17.60
2022-11-19T00:48:57.547Z,17.02
2022-11-19T00:51:28.394Z,17.77
2022-11-19T00:53:56.058Z,17.10
2022-11-19T00:56:26.114Z,17.30
2022-11-19T00:58:53.158Z,16.48
2022-11-19T01:01:23.827Z,16.70
2022-11-19T01:03:51.981Z,16.52
2022-11-19T01:06:22.219Z,16.33
2022-11-19T01:08:50.851Z,16.48
2022-11-19T01:11:37.830Z,16.63
2022-11-19T01:14:06.258Z,15.70
2022-11-19T01:16:39.943Z,15.82
2022-11-19T01:19:10.730Z,16.67
2022-11-19T01:21:38.051Z,17.27
2022-11-19T01:24:06.338Z,16.95
2022-11-19T01:26:33.098Z,17.48
2022-11-19T01:28:59.938Z,15.50
2022-11-19T01:31:29.943Z,15.73
2022-11-19T01:33:57.130Z,15.27
2022-11-19T01:36:29.836Z,17.00
2022-11-19T01:38:57.426Z,16.88
2022-11-19T01:41:31.380Z,17.15
2022-11-19T01:44:00.417Z,16.60
2022-11-19T01:46:33.769Z,16.33
2022-11-19T01:49:30.138Z,16.30
2022-11-19T01:52:03.593Z,19.20
2022-11-19T01:54:39.373Z,19.88
2022-11-19T01:57:11.315Z,17.65
2022-11-19T01:59:39.358Z,16.98
2022-11-19T02:02:06.231Z,18.38
2022-11-19T02:04:35.152Z,19.48
2022-11-19T02:07:02.507Z,17.27
2022-11-19T02:09:30.181Z,19.02
2022-11-19T02:12:39.178Z,18.65
2022-11-19T02:15:46.222Z,17.65
2022-11-19T02:18:22.698Z,18.25
2022-11-19T02:21:27.858Z,18.48
2022-11-19T02:24:12.800Z,19.17
2022-11-19T02:27:03.562Z,19.02
2022-11-19T02:29:31.616Z,20.63
2022-11-19T02:32:21.747Z,21.63
2022-11-19T02:35:09.186Z,20.13
2022-11-19T02:37:52.255Z,21.27
2022-11-19T02:40:38.221Z,20.50
2022-11-19T02:43:25.333Z,20.77
2022-11-19T02:46:13.214Z,21.25
2022-11-19T02:48:51.136Z,21.30
2022-11-19T02:51:19.522Z,23.45
2022-11-19T02:53:49.303Z,21.40
2022-11-19T02:56:54.143Z,20.38
2022-11-19T02:59:48.379Z,22.00
2022-11-19T03:02:37.367Z,23.88
2022-11-19T03:05:11.088Z,23.80
2022-11-19T03:07:38.287Z,22.67
2022-11-19T03:10:11.003Z,22.35
2022-11-19T03:13:28.205Z,23.80
2022-11-19T03:16:17.198Z,25.88
2022-11-19T03:19:06.894Z,25.40
2022-11-19T03:21:40.875Z,26.92
2022-11-19T03:24:16.202Z,24.73
2022-11-19T03:26:57.334Z,26.48
2022-11-19T03:29:27.686Z,24.77
2022-11-19T03:32:06.330Z,25.85
2022-11-19T03:34:35.709Z,26.58
2022-11-19T03:37:05.143Z,25.30
2022-11-19T03:39:36.789Z,28.02
2022-11-19T03:42:11.709Z,27.08
2022-11-19T03:44:49.999Z,25.70
2022-11-19T03:47:27.715Z,25.48
2022-11-19T03:50:04.886Z,25.75
2022-11-19T03:52:31.861Z,27.80
2022-11-19T03:54:58.688Z,25.30
2022-11-19T03:57:27.285Z,25.17
2022-11-19T03:59:54.114Z,24.50
2022-11-19T04:02:21.237Z,23.35
2022-11-19T04:04:47.991Z,24.33
2022-11-19T04:07:19.932Z,25.73
2022-11-19T04:09:46.695Z,26.10
2022-11-19T04:12:23.582Z,26.00
2022-11-19T04:14:51.521Z,25.80
2022-11-19T04:17:20.121Z,22.77
2022-11-19T04:19:47.002Z,25.90
2022-11-19T04:22:13.838Z,25.50
2022-11-19T04:24:40.634Z,23.27
2022-11-19T04:27:07.365Z,24.40
2022-11-19T04:29:34.075Z,23.35
2022-11-19T04:32:00.849Z,25.02
2022-11-19T04:34:27.635Z,24.60
2022-11-19T04:36:54.427Z,24.33
2022-11-19T04:39:21.605Z,24.80
2022-11-19T04:41:48.538Z,24.67
2022-11-19T04:44:15.282Z,22.40
2022-11-19T04:46:42.077Z,24.10
2022-11-19T04:49:08.935Z,24.17
2022-11-19T04:51:35.749Z,23.75
2022-11-19T04:54:02.507Z,23.23
2022-11-19T04:56:29.306Z,24.38
2022-11-19T04:58:56.107Z,23.63
2022-11-19T05:01:22.953Z,23.60
2022-11-19T05:03:50.651Z,23.60
2022-11-19T05:06:17.733Z,23.20
2022-11-19T05:08:44.830Z,24.45
2022-11-19T05:11:11.667Z,24.70
2022-11-19T05:13:38.437Z,23.35
2022-11-19T05:16:05.789Z,20.85
2022-11-19T05:18:32.718Z,23.80
2022-11-19T05:20:59.852Z,21.83
2022-11-19T05:23:26.633Z,23.52
2022-11-19T05:25:53.446Z,24.02
2022-11-19T05:28:28.635Z,22.65
2022-11-19T05:31:04.711Z,23.42
2022-11-19T05:33:34.183Z,25.05
2022-11-19T05:36:02.229Z,24.30
2022-11-19T05:38:29.152Z,24.17
2022-11-19T05:40:55.894Z,21.95
2022-11-19T05:43:22.635Z,24.17
2022-11-19T05:45:49.464Z,22.17
2022-11-19T05:48:16.242Z,24.35
2022-11-19T05:50:43.012Z,23.27
2022-11-19T05:53:10.528Z,24.05
2022-11-19T05:55:37.281Z,22.75
2022-11-19T05:58:04.070Z,23.52
2022-11-19T06:00:30.841Z,22.70
2022-11-19T06:02:57.692Z,25.45
2022-11-19T06:05:24.516Z,23.85
2022-11-19T06:07:51.306Z,23.63
2022-11-19T06:10:18.178Z,21.42
2022-11-19T06:12:46.060Z,21.25
2022-11-19T06:15:14.191Z,22.42
2022-11-19T06:17:42.055Z,23.25
2022-11-19T06:20:10.926Z,22.02
2022-11-19T06:22:38.550Z,21.38
2022-11-19T06:25:06.168Z,21.80
2022-11-19T06:27:33.342Z,22.23
2022-11-19T06:30:00.303Z,24.70
2022-11-19T06:32:27.482Z,22.25
2022-11-19T06:34:54.243Z,21.85
2022-11-19T06:37:20.955Z,21.40
2022-11-19T06:39:47.854Z,22.20
2022-11-19T06:42:33.154Z,23.08
2022-11-19T06:45:00.088Z,22.20
2022-11-19T06:47:26.866Z,21.85
2022-11-19T06:49:53.626Z,20.33
2022-11-19T06:52:20.389Z,20.77
2022-11-19T06:54:47.203Z,22.00
2022-11-19T06:57:14.031Z,20.77
2022-11-19T06:59:40.865Z,23.25
2022-11-19T07:02:10.028Z,21.88
2022-11-19T07:04:36.817Z,21.05
2022-11-19T07:07:04.369Z,20.92
2022-11-19T07:09:31.591Z,20.75
2022-11-19T07:11:58.333Z,19.83
2022-11-19T07:14:25.180Z,19.88
2022-11-19T07:16:52.018Z,19.98
2022-11-19T07:19:19.458Z,20.02
2022-11-19T07:21:46.472Z,21.08
2022-11-19T07:24:16.979Z,20.65
2022-11-19T07:26:44.409Z,19.65
2022-11-19T07:29:14.799Z,21.33
2022-11-19T07:31:42.288Z,20.33
2022-11-19T07:34:10.987Z,20.70
2022-11-19T07:36:38.416Z,19.58
2022-11-19T07:39:06.278Z,20.08
2022-11-19T07:41:52.535Z,20.10
2022-11-19T07:44:19.629Z,20.70
2022-11-19T07:46:46.443Z,19.98
2022-11-19T07:49:13.471Z,20.05
2022-11-19T07:51:40.553Z,21.33
2022-11-19T07:54:09.163Z,20.70
2022-11-19T07:56:36.136Z,19.38
2022-11-19T07:59:03.222Z,20.45
2022-11-19T08:01:30.177Z,21.50
2022-11-19T08:03:57.345Z,19.40
2022-11-19T08:06:27.229Z,19.88
2022-11-19T08:08:57.310Z,20.33
2022-11-19T08:11:25.089Z,19.88
2022-11-19T08:13:52.838Z,20.23
2022-11-19T08:16:38.534Z,17.98
2022-11-19T08:19:09.574Z,18.67
2022-11-19T08:21:40.707Z,21.27
2022-11-19T08:24:09.094Z,19.17
2022-11-19T08:26:37.240Z,19.13
2022-11-19T08:29:05.526Z,20.00
2022-11-19T08:31:32.450Z,20.48
2022-11-19T08:34:02.607Z,19.08
2022-11-19T08:36:29.818Z,19.83
2022-11-19T08:39:00.925Z,20.55
2022-11-19T08:41:46.636Z,20.88
2022-11-19T08:44:13.809Z,19.58
2022-11-19T08:46:41.451Z,20.98
2022-11-19T08:49:08.627Z,20.73
2022-11-19T08:51:35.890Z,20.33
2022-11-19T08:54:02.625Z,21.05
2022-11-19T08:56:29.485Z,20.98
2022-11-19T08:59:02.300Z,22.05
2022-11-19T09:01:29.922Z,21.00
2022-11-19T09:03:56.769Z,21.50
2022-11-19T09:06:23.658Z,20.60
2022-11-19T09:08:50.688Z,19.55
2022-11-19T09:11:20.677Z,20.30
2022-11-19T09:13:47.478Z,22.73
2022-11-19T09:16:14.984Z,20.52
2022-11-19T09:18:42.279Z,20.77
2022-11-19T09:21:12.064Z,19.70
2022-11-19T09:23:41.355Z,21.60
2022-11-19T09:26:13.615Z,19.35
2022-11-19T09:28:41.279Z,19.40
2022-11-19T09:31:15.035Z,19.85
2022-11-19T09:33:45.948Z,20.45
2022-11-19T09:36:13.587Z,19.10
2022-11-19T09:38:41.458Z,19.65
2022-11-19T09:41:43.420Z,18.67
2022-11-19T09:44:18.117Z,19.42
2022-11-19T09:47:06.749Z,18.75
2022-11-19T09:49:58.534Z,18.80
2022-11-19T09:52:30.005Z,18.25
2022-11-19T09:54:57.694Z,19.05
2022-11-19T09:57:48.837Z,17.20
2022-11-19T10:00:23.167Z,18.25
2022-11-19T10:02:50.955Z,17.38
2022-11-19T10:05:30.674Z,17.67
2022-11-19T10:08:24.200Z,16.95
2022-11-19T10:11:17.771Z,15.80
2022-11-19T10:14:34.695Z,16.30
2022-11-19T10:17:34.864Z,14.52
2022-11-19T10:20:20.790Z,16.30
2022-11-19T10:23:30.510Z,15.32
2022-11-19T10:26:08.359Z,15.40
2022-11-19T10:28:43.746Z,14.32
2022-11-19T10:31:34.669Z,15.23
2022-11-19T10:34:37.880Z,14.13
2022-11-19T10:37:17.855Z,14.93
2022-11-19T10:40:00.979Z,14.93
2022-11-19T10:42:52.278Z,14.80
2022-11-19T10:45:25.338Z,15.30
2022-11-19T10:48:02.294Z,13.77
2022-11-19T10:50:32.955Z,13.77
2022-11-19T10:53:17.963Z,13.90
2022-11-19T10:55:54.472Z,13.93
2022-11-19T10:58:38.064Z,13.75
2022-11-19T11:01:22.407Z,13.05
2022-11-19T11:04:17.250Z,13.10
2022-11-19T11:06:58.520Z,13.82
2022-11-19T11:09:35.454Z,12.77
2022-11-19T11:12:31.324Z,12.82
2022-11-19T11:15:23.049Z,13.30
2022-11-19T11:18:03.482Z,12.35
2022-11-19T11:20:31.657Z,12.45
2022-11-19T11:23:18.150Z,12.90
2022-11-19T11:26:12.809Z,12.00
2022-11-19T11:29:01.766Z,12.45
2022-11-19T11:31:40.492Z,13.60
2022-11-19T11:34:36.554Z,13.15
2022-11-19T11:37:08.622Z,13.07
2022-11-19T11:39:40.022Z,13.07
2022-11-19T11:42:17.675Z,12.80
2022-11-19T11:44:54.893Z,12.85
2022-11-19T11:47:37.513Z,12.02
2022-11-19T11:50:16.910Z,12.70
2022-11-19T11:52:51.315Z,11.90
2022-11-19T11:55:24.180Z,11.85
2022-11-19T11:57:55.404Z,12.77
2022-11-19T12:00:41.825Z,12.35
2022-11-19T12:03:20.041Z,12.10
2022-11-19T12:06:02.049Z,12.32
2022-11-19T12:09:11.926Z,12.30
2022-11-19T12:12:06.638Z,12.23
2022-11-19T12:14:36.478Z,11.35
2022-11-19T12:17:30.972Z,10.93
2022-11-19T12:20:29.230Z,11.57
2022-11-19T12:23:25.485Z,11.10
2022-11-19T12:26:01.730Z,10.23
2022-11-19T12:29:00.255Z,11.63
2022-11-19T12:32:27.439Z,10.65
2022-11-19T12:35:02.409Z,11.05
2022-11-19T12:38:03.776Z,9.88
2022-11-19T12:41:01.394Z,9.85
2022-11-19T12:43:57.835Z,9.95
2022-11-19T12:46:41.577Z,9.27
2022-11-19T12:49:47.877Z,9.45
2022-11-19T12:52:45.204Z,10.07
2022-11-19T12:55:36.224Z,9.50
2022-11-19T12:58:25.518Z,9.38
2022-11-19T13:01:12.790Z,9.02
2022-11-19T13:04:18.902Z,9.25
2022-11-19T13:07:15.880Z,8.93
2022-11-19T13:09:53.094Z,9.75
2022-11-19T13:12:36.749Z,9.05
2022-11-19T13:15:09.726Z,9.00
2022-11-19T13:17:44.990Z,8.95
2022-11-19T13:20:31.419Z,8.55
2022-11-19T13:23:04.557Z,7.88
2022-11-19T13:25:42.012Z,7.97
2022-11-19T13:28:26.669Z,7.55
2022-11-19T13:31:00.896Z,8.02
2022-11-19T13:33:51.058Z,7.97
2022-11-19T13:36:26.997Z,7.20
2022-11-19T13:39:00.751Z,7.18
2022-11-19T13:41:35.484Z,6.95
2022-11-19T13:44:21.215Z,6.97
2022-11-19T13:46:59.111Z,6.78
2022-11-19T13:49:40.125Z,6.57
2022-11-19T13:52:29.282Z,6.53
2022-11-19T13:54:59.462Z,6.05
2022-11-19T13:57:39.001Z,6.05
2022-11-19T14:00:25.337Z,5.78
2022-11-19T14:03:40.433Z,5.95
2022-11-19T14:06:40.986Z,5.90
2022-11-19T14:09:23.665Z,5.25
2022-11-19T14:12:19.463Z,4.72
2022-11-19T14:15:32.505Z,5.68
2022-11-19T14:18:53.058Z,5.72
2022-11-19T14:21:42.762Z,5.90
2022-11-19T14:24:43.426Z,5.82
2022-11-19T14:27:22.126Z,5.63
2022-11-19T14:29:48.998Z,5.35
2022-11-19T14:32:15.794Z,5.30
2022-11-19T14:35:25.625Z,5.43
2022-11-19T14:38:25.651Z,5.22
2022-11-19T14:41:06.008Z,4.75
2022-11-19T14:44:08.920Z,4.85
2022-11-19T14:46:56.087Z,5.20
2022-11-19T14:49:38.020Z,5.07
2022-11-19T14:52:21.186Z,4.60
2022-11-19T14:54:57.009Z,5.43
2022-11-19T14:57:38.555Z,5.13
2022-11-19T15:00:14.898Z,4.60
2022-11-19T15:02:49.112Z,5.30
2022-11-19T15:05:39.031Z,5.03
2022-11-19T15:08:18.108Z,4.60
2022-11-19T15:11:08.912Z,5.50
2022-11-19T15:13:39.013Z,5.18
2022-11-19T15:16:28.027Z,5.47
2022-11-19T15:19:32.225Z,5.35
2022-11-19T15:22:39.250Z,5.47
2022-11-19T15:25:31.702Z,6.50
2022-11-19T15:28:47.211Z,5.93
2022-11-19T15:31:51.542Z,5.45
2022-11-19T15:35:13.944Z,6.22
2022-11-19T15:38:18.533Z,5.30
2022-11-19T15:40:51.445Z,5.53
2022-11-19T15:43:36.282Z,5.95
2022-11-19T15:46:32.957Z,5.70
2022-11-19T15:49:28.206Z,5.88
2022-11-19T15:52:14.469Z,4.65
2022-11-19T15:54:44.569Z,5.43
2022-11-19T15:57:20.621Z,5.95
2022-11-19T15:59:56.948Z,6.13
2022-11-19T16:02:40.902Z,5.85
2022-11-19T16:05:20.282Z,5.80
2022-11-19T16:07:48.723Z,6.05
2022-11-19T16:10:46.645Z,6.85
2022-11-19T16:13:58.410Z,6.45
2022-11-19T16:16:47.521Z,7.28
2022-11-19T16:19:16.618Z,7.18
2022-11-19T16:21:49.786Z,9.48
2022-11-19T16:24:39.174Z,10.00
2022-11-19T16:27:13.008Z,16.92
2022-11-19T16:29:42.693Z,12.57
2022-11-19T16:32:17.594Z,11.70
2022-11-19T16:34:44.691Z,11.75
2022-11-19T16:37:17.671Z,11.05
2022-11-19T16:39:51.889Z,10.15
2022-11-19T16:42:26.644Z,10.52
2022-11-19T16:45:08.389Z,10.07
2022-11-19T16:47:49.759Z,11.02
2022-11-19T16:50:36.278Z,9.93
2022-11-19T16:53:08.417Z,8.50
2022-11-19T16:55:42.885Z,9.45
2022-11-19T16:58:19.281Z,10.43
2022-11-19T17:00:54.305Z,8.93
2022-11-19T17:03:21.293Z,9.23
2022-11-19T17:05:52.000Z,9.73
2022-11-19T17:08:30.436Z,10.68
2022-11-19T17:11:39.365Z,11.65
2022-11-19T17:14:23.637Z,11.02
2022-11-19T17:16:53.639Z,12.73
2022-11-19T17:19:27.274Z,12.40
2022-11-19T17:22:06.880Z,13.02
2022-11-19T17:24:45.814Z,13.07
2022-11-19T17:27:34.670Z,16.13
2022-11-19T17:30:23.207Z,18.15
2022-11-19T17:32:57.182Z,17.95
2022-11-19T17:35:45.312Z,16.83
2022-11-19T17:38:23.954Z,16.02
2022-11-19T17:41:14.556Z,16.38
2022-11-19T17:44:00.247Z,17.23
2022-11-19T17:46:29.882Z,15.25
2022-11-19T17:48:57.115Z,16.38
2022-11-19T17:51:26.376Z,16.17
2022-11-19T17:53:55.569Z,14.80
2022-11-19T17:56:27.305Z,15.80
2022-11-19T17:58:55.021Z,15.80
2022-11-19T18:01:22.584Z,16.55
2022-11-19T18:03:49.581Z,15.38
2022-11-19T18:06:18.325Z,14.93
2022-11-19T18:08:46.072Z,16.15
2022-11-19T18:11:23.398Z,16.30
2022-11-19T18:13:59.129Z,16.90
2022-11-19T18:16:34.020Z,14.90
2022-11-19T18:19:00.926Z,14.15
2022-11-19T18:21:27.833Z,15.40
2022-11-19T18:23:54.612Z,15.32
2022-11-19T18:26:23.247Z,14.40
2022-11-19T18:28:50.443Z,15.38
2022-11-19T18:31:27.192Z,14.57
2022-11-19T18:33:56.164Z,15.57
2022-11-19T18:36:25.131Z,15.75
2022-11-19T18:38:52.900Z,18.88
2022-11-19T18:41:19.918Z,18.08
2022-11-19T18:44:05.914Z,17.63
2022-11-19T18:46:32.752Z,18.98
2022-11-19T18:48:59.863Z,17.80
2022-11-19T18:51:30.806Z,18.15
2022-11-19T18:53:57.583Z,19.27
2022-11-19T18:56:24.420Z,18.85
2022-11-19T18:58:51.263Z,20.02
2022-11-19T19:01:18.399Z,20.25
2022-11-19T19:03:45.700Z,19.52
2022-11-19T19:06:12.807Z,18.73
2022-11-19T19:08:39.554Z,17.95
2022-11-19T19:11:26.515Z,17.13
2022-11-19T19:13:54.277Z,17.55
2022-11-19T19:16:21.868Z,17.60
2022-11-19T19:18:48.978Z,17.17
2022-11-19T19:21:21.865Z,16.77
2022-11-19T19:23:49.707Z,18.45
2022-11-19T19:26:18.586Z,19.88
2022-11-19T19:28:51.681Z,20.42
2022-11-19T19:31:20.099Z,21.17
2022-11-19T19:33:47.703Z,20.15
2022-11-19T19:36:16.455Z,18.42
2022-11-19T19:38:43.815Z,19.42
2022-11-19T19:41:16.619Z,16.70
2022-11-19T19:43:44.037Z,16.75
2022-11-19T19:46:15.085Z,18.08
2022-11-19T19:48:47.278Z,16.35
2022-11-19T19:51:16.508Z,15.80
2022-11-19T19:53:44.022Z,16.50
2022-11-19T19:56:21.799Z,15.52
2022-11-19T19:58:50.810Z,15.05
2022-11-19T20:01:32.146Z,15.25
2022-11-19T20:04:07.222Z,16.05
2022-11-19T20:06:37.617Z,15.13
2022-11-19T20:09:09.045Z,14.65
2022-11-19T20:11:48.606Z,14.18
2022-11-19T20:14:16.254Z,14.38
2022-11-19T20:16:43.123Z,13.52
2022-11-19T20:19:14.718Z,13.35
2022-11-19T20:21:42.274Z,12.70
2022-11-19T20:24:12.673Z,12.20
2022-11-19T20:26:42.113Z,12.55
2022-11-19T20:29:13.886Z,11.60
2022-11-19T20:31:45.585Z,11.68
2022-11-19T20:34:12.986Z,12.25
2022-11-19T20:36:39.910Z,13.10
2022-11-19T20:39:06.842Z,13.32
2022-11-19T20:41:52.900Z,13.40
2022-11-19T20:44:19.972Z,15.25
2022-11-19T20:47:02.994Z,15.85
2022-11-19T20:49:36.532Z,16.02
2022-11-19T20:52:03.812Z,14.35
2022-11-19T20:54:32.383Z,14.73
2022-11-19T20:57:00.315Z,13.95
2022-11-19T20:59:27.817Z,13.32
2022-11-19T21:01:56.469Z,13.98
2022-11-19T21:04:26.162Z,13.43
2022-11-19T21:06:56.347Z,14.02
2022-11-19T21:09:23.926Z,13.40
2022-11-19T21:11:51.081Z,13.75
2022-11-19T21:14:17.875Z,13.75
2022-11-19T21:16:44.776Z,14.30
2022-11-19T21:19:12.532Z,15.02
2022-11-19T21:21:39.376Z,14.18
2022-11-19T21:24:07.129Z,14.13
2022-11-19T21:26:33.986Z,14.45
2022-11-19T21:29:00.989Z,15.75
2022-11-19T21:31:38.678Z,16.60
2022-11-19T21:34:15.134Z,16.88
2022-11-19T21:36:43.399Z,18.08
2022-11-19T21:39:11.797Z,16.50
2022-11-19T21:41:38.799Z,19.60
2022-11-19T21:44:06.100Z,19.88
2022-11-19T21:46:34.311Z,20.25
2022-11-19T21:49:01.560Z,20.75
2022-11-19T21:51:28.361Z,21.63
2022-11-19T21:53:57.409Z,21.85
2022-11-19T21:56:25.738Z,19.63
2022-11-19T21:58:52.646Z,18.15
2022-11-19T22:01:19.586Z,18.95
2022-11-19T22:03:46.634Z,18.52
2022-11-19T22:06:13.496Z,18.08
2022-11-19T22:08:42.070Z,19.83
2022-11-19T22:11:29.958Z,20.08
2022-11-19T22:14:08.512Z,18.27
2022-11-19T22:16:39.370Z,18.38
2022-11-19T22:19:06.882Z,18.65
2022-11-19T22:21:34.430Z,19.08
2022-11-19T22:24:01.286Z,19.27
2022-11-19T22:26:28.267Z,19.13
2022-11-19T22:28:55.877Z,19.42
2022-11-19T22:31:24.299Z,18.45
2022-11-19T22:33:52.268Z,18.23
2022-11-19T22:36:21.228Z,18.13
2022-11-19T22:38:48.851Z,17.27
2022-11-19T22:41:19.264Z,17.73
2022-11-19T22:43:46.262Z,18.20
2022-11-19T22:46:14.530Z,18.98
2022-11-19T22:48:41.980Z,18.42
2022-11-19T22:51:24.202Z,19.23
2022-11-19T22:53:53.395Z,18.27
2022-11-19T22:56:27.384Z,19.00
2022-11-19T22:58:54.774Z,18.52
2022-11-19T23:01:25.555Z,17.95
2022-11-19T23:03:53.752Z,18.33
2022-11-19T23:06:21.142Z,17.20
2022-11-19T23:08:47.962Z,18.55
2022-11-19T23:11:37.715Z,19.67
2022-11-19T23:14:05.201Z,18.08
2022-11-19T23:16:32.018Z,19.10
2022-11-19T23:18:58.799Z,19.55
2022-11-19T23:21:28.582Z,18.58
2022-11-19T23:23:57.069Z,18.45
2022-11-19T23:26:28.618Z,19.42
2022-11-19T23:28:55.741Z,19.52
2022-11-19T23:31:28.100Z,27.42
2022-11-19T23:33:59.062Z,26.50
2022-11-19T23:36:32.973Z,25.23
2022-11-19T23:39:00.739Z,23.75
2022-11-19T23:41:31.757Z,25.98
2022-11-19T23:43:58.686Z,23.95
2022-11-19T23:46:29.845Z,23.80
2022-11-19T23:48:58.891Z,22.60
2022-11-19T23:51:33.028Z,20.15
2022-11-19T23:54:00.002Z,18.52
2022-11-19T23:56:30.270Z,19.23
2022-11-19T23:58:58.001Z,18.88
